sensor_id;sensor_type;location;lat;lon;timestamp;P1;durP1;ratioP1;P2;durP2;ratioP2
65684;SDS011;52405;50.844;-1.062;2022-11-13T00:02:10;34.75;;;17.95;;
65684;SDS011;52405;50.844;-1.062;2022-11-13T00:04:36;33.20;;;17.02;;
65684;SDS011;52405;50.844;-1.062;2022-11-13T00:07:01;35.45;;;17.65;;
65684;SDS011;52405;50.844;-1.062;2022-11-13T00:09:27;36.90;;;17.77;;
65684;SDS011;52405;50.844;-1.062;2022-11-13T00:11:52;39.85;;;18.67;;
65684;SDS011;52405;50.844;-1.062;2022-11-13T00:14:17;34.53;;;17.95;;
65684;SDS011;52405;50.844;-1.062;2022-11-13T00:16:43;34.38;;;18.20;;
65684;SDS011;52405;50.844;-1.062;2022-11-13T00:19:08;33.65;;;17.60;;
65684;SDS011;52405;50.844;-1.062;2022-11-13T00:21:34;37.63;;;18.40;;
65684;SDS011;52405;50.844;-1.062;2022-11-13T00:23:59;31.92;;;16.48;;
65684;SDS011;52405;50.844;-1.062;2022-11-13T00:26:26;36.20;;;16.92;;
65684;SDS011;52405;50.844;-1.062;2022-11-13T00:28:53;37.05;;;17.33;;
65684;SDS011;52405;50.844;-1.062;2022-11-13T00:31:20;30.23;;;15.85;;
65684;SDS011;52405;50.844;-1.062;2022-11-13T00:33:46;37.13;;;17.52;;
65684;SDS011;52405;50.844;-1.062;2022-11-13T00:36:16;33.38;;;18.40;;
65684;SDS011;52405;50.844;-1.062;2022-11-13T00:38:43;34.28;;;17.30;;
65684;SDS011;52405;50.844;-1.062;2022-11-13T00:41:09;39.03;;;17.88;;
65684;SDS011;52405;50.844;-1.062;2022-11-13T00:43:35;37.45;;;19.40;;
65684;SDS011;52405;50.844;-1.062;2022-11-13T00:46:00;35.97;;;20.05;;
65684;SDS011;52405;50.844;-1.062;2022-11-13T00:48:26;42.90;;;18.77;;
65684;SDS011;52405;50.844;-1.062;2022-11-13T00:50:51;43.95;;;18.08;;
65684;SDS011;52405;50.844;-1.062;2022-11-13T00:53:17;34.38;;;17.85;;
65684;SDS011;52405;50.844;-1.062;2022-11-13T00:55:43;37.08;;;17.85;;
65684;SDS011;52405;50.844;-1.062;2022-11-13T00:58:09;35.60;;;18.70;;
65684;SDS011;52405;50.844;-1.062;2022-11-13T01:00:38;38.42;;;18.65;;
65684;SDS011;52405;50.844;-1.062;2022-11-13T01:03:05;42.17;;;19.55;;
65684;SDS011;52405;50.844;-1.062;2022-11-13T01:05:34;31.67;;;17.15;;
65684;SDS011;52405;50.844;-1.062;2022-11-13T01:08:01;44.45;;;19.20;;
65684;SDS011;52405;50.844;-1.062;2022-11-13T01:10:26;31.58;;;19.58;;
65684;SDS011;52405;50.844;-1.062;2022-11-13T01:12:52;36.42;;;18.83;;
65684;SDS011;52405;50.844;-1.062;2022-11-13T01:15:17;38.35;;;18.63;;
65684;SDS011;52405;50.844;-1.062;2022-11-13T01:17:43;33.03;;;17.67;;
65684;SDS011;52405;50.844;-1.062;2022-11-13T01:20:09;37.40;;;17.98;;
65684;SDS011;52405;50.844;-1.062;2022-11-13T01:22:35;33.72;;;17.95;;
65684;SDS011;52405;50.844;-1.062;2022-11-13T01:25:00;42.50;;;19.15;;
65684;SDS011;52405;50.844;-1.062;2022-11-13T01:27:25;39.78;;;19.02;;
65684;SDS011;52405;50.844;-1.062;2022-11-13T01:29:51;36.65;;;18.23;;
65684;SDS011;52405;50.844;-1.062;2022-11-13T01:32:16;39.33;;;18.13;;
65684;SDS011;52405;50.844;-1.062;2022-11-13T01:34:42;38.80;;;18.25;;
65684;SDS011;52405;50.844;-1.062;2022-11-13T01:37:07;40.60;;;18.52;;
65684;SDS011;52405;50.844;-1.062;2022-11-13T01:39:33;33.40;;;16.85;;
65684;SDS011;52405;50.844;-1.062;2022-11-13T01:41:59;39.10;;;18.23;;
65684;SDS011;52405;50.844;-1.062;2022-11-13T01:44:25;37.50;;;19.05;;
65684;SDS011;52405;50.844;-1.062;2022-11-13T01:47:08;33.40;;;18.58;;
65684;SDS011;52405;50.844;-1.062;2022-11-13T01:49:35;42.60;;;19.20;;
65684;SDS011;52405;50.844;-1.062;2022-11-13T01:52:08;43.72;;;19.00;;
65684;SDS011;52405;50.844;-1.062;2022-11-13T01:54:42;47.08;;;21.83;;
65684;SDS011;52405;50.844;-1.062;2022-11-13T01:57:10;43.13;;;20.88;;
65684;SDS011;52405;50.844;-1.062;2022-11-13T01:59:40;45.03;;;21.73;;
65684;SDS011;52405;50.844;-1.062;2022-11-13T02:02:10;48.38;;;24.25;;
65684;SDS011;52405;50.844;-1.062;2022-11-13T02:04:36;45.22;;;22.90;;
65684;SDS011;52405;50.844;-1.062;2022-11-13T02:07:03;44.85;;;23.42;;
65684;SDS011;52405;50.844;-1.062;2022-11-13T02:09:36;56.33;;;23.58;;
65684;SDS011;52405;50.844;-1.062;2022-11-13T02:12:05;51.55;;;24.08;;
65684;SDS011;52405;50.844;-1.062;2022-11-13T02:14:32;50.25;;;23.92;;
65684;SDS011;52405;50.844;-1.062;2022-11-13T02:17:01;54.33;;;24.00;;
65684;SDS011;52405;50.844;-1.062;2022-11-13T02:19:31;52.05;;;24.40;;
65684;SDS011;52405;50.844;-1.062;2022-11-13T02:25:00;46.15;;;21.92;;
65684;SDS011;52405;50.844;-1.062;2022-11-13T02:27:33;42.67;;;22.23;;
65684;SDS011;52405;50.844;-1.062;2022-11-13T02:32:56;40.53;;;20.13;;
65684;SDS011;52405;50.844;-1.062;2022-11-13T02:35:32;38.97;;;19.33;;
65684;SDS011;52405;50.844;-1.062;2022-11-13T02:38:02;43.85;;;20.30;;
65684;SDS011;52405;50.844;-1.062;2022-11-13T02:40:30;41.63;;;20.70;;
65684;SDS011;52405;50.844;-1.062;2022-11-13T02:42:57;45.92;;;20.15;;
65684;SDS011;52405;50.844;-1.062;2022-11-13T02:45:23;37.53;;;19.83;;
65684;SDS011;52405;50.844;-1.062;2022-11-13T02:47:48;39.50;;;19.45;;
65684;SDS011;52405;50.844;-1.062;2022-11-13T02:50:14;41.92;;;20.30;;
65684;SDS011;52405;50.844;-1.062;2022-11-13T02:52:40;44.50;;;21.35;;
65684;SDS011;52405;50.844;-1.062;2022-11-13T02:55:06;44.33;;;20.23;;
65684;SDS011;52405;50.844;-1.062;2022-11-13T02:57:31;40.90;;;20.15;;
65684;SDS011;52405;50.844;-1.062;2022-11-13T02:59:57;44.40;;;20.50;;
65684;SDS011;52405;50.844;-1.062;2022-11-13T03:02:22;47.58;;;20.40;;
65684;SDS011;52405;50.844;-1.062;2022-11-13T03:04:48;44.90;;;22.05;;
65684;SDS011;52405;50.844;-1.062;2022-11-13T03:07:14;46.17;;;20.23;;
65684;SDS011;52405;50.844;-1.062;2022-11-13T03:09:39;50.10;;;21.48;;
65684;SDS011;52405;50.844;-1.062;2022-11-13T03:12:06;41.88;;;19.27;;
65684;SDS011;52405;50.844;-1.062;2022-11-13T03:14:32;44.78;;;21.75;;
65684;SDS011;52405;50.844;-1.062;2022-11-13T03:16:58;46.33;;;20.70;;
65684;SDS011;52405;50.844;-1.062;2022-11-13T03:19:23;38.47;;;20.95;;
65684;SDS011;52405;50.844;-1.062;2022-11-13T03:21:49;46.30;;;22.75;;
65684;SDS011;52405;50.844;-1.062;2022-11-13T03:24:14;50.85;;;22.33;;
65684;SDS011;52405;50.844;-1.062;2022-11-13T03:26:40;47.35;;;22.23;;
65684;SDS011;52405;50.844;-1.062;2022-11-13T03:29:05;61.05;;;24.00;;
65684;SDS011;52405;50.844;-1.062;2022-11-13T03:31:31;47.33;;;22.08;;
65684;SDS011;52405;50.844;-1.062;2022-11-13T03:33:56;52.53;;;24.33;;
65684;SDS011;52405;50.844;-1.062;2022-11-13T03:36:22;50.13;;;23.30;;
65684;SDS011;52405;50.844;-1.062;2022-11-13T03:38:48;48.05;;;22.65;;
65684;SDS011;52405;50.844;-1.062;2022-11-13T03:41:14;51.20;;;23.17;;
65684;SDS011;52405;50.844;-1.062;2022-11-13T03:43:40;52.15;;;24.65;;
65684;SDS011;52405;50.844;-1.062;2022-11-13T03:46:06;55.92;;;24.17;;
65684;SDS011;52405;50.844;-1.062;2022-11-13T03:48:32;55.80;;;24.80;;
65684;SDS011;52405;50.844;-1.062;2022-11-13T03:50:57;55.33;;;24.10;;
65684;SDS011;52405;50.844;-1.062;2022-11-13T03:53:23;54.15;;;25.95;;
65684;SDS011;52405;50.844;-1.062;2022-11-13T03:55:48;60.80;;;24.83;;
65684;SDS011;52405;50.844;-1.062;2022-11-13T03:58:14;62.83;;;25.40;;
65684;SDS011;52405;50.844;-1.062;2022-11-13T04:00:40;76.80;;;28.23;;
65684;SDS011;52405;50.844;-1.062;2022-11-13T04:03:07;74.55;;;27.27;;
65684;SDS011;52405;50.844;-1.062;2022-11-13T04:05:32;93.10;;;29.67;;
65684;SDS011;52405;50.844;-1.062;2022-11-13T04:07:58;84.45;;;29.30;;
65684;SDS011;52405;50.844;-1.062;2022-11-13T04:10:23;80.40;;;26.70;;
65684;SDS011;52405;50.844;-1.062;2022-11-13T04:12:49;81.05;;;27.45;;
65684;SDS011;52405;50.844;-1.062;2022-11-13T04:15:15;74.72;;;29.10;;
65684;SDS011;52405;50.844;-1.062;2022-11-13T04:17:41;76.30;;;28.58;;
65684;SDS011;52405;50.844;-1.062;2022-11-13T04:20:06;91.88;;;30.80;;
65684;SDS011;52405;50.844;-1.062;2022-11-13T04:22:32;81.03;;;29.52;;
65684;SDS011;52405;50.844;-1.062;2022-11-13T04:24:58;77.00;;;28.73;;
65684;SDS011;52405;50.844;-1.062;2022-11-13T04:27:23;86.25;;;29.02;;
65684;SDS011;52405;50.844;-1.062;2022-11-13T04:29:49;92.38;;;30.02;;
65684;SDS011;52405;50.844;-1.062;2022-11-13T04:32:14;106.32;;;33.10;;
65684;SDS011;52405;50.844;-1.062;2022-11-13T04:34:40;101.15;;;32.75;;
65684;SDS011;52405;50.844;-1.062;2022-11-13T04:37:05;113.68;;;32.25;;
65684;SDS011;52405;50.844;-1.062;2022-11-13T04:39:31;101.30;;;32.20;;
65684;SDS011;52405;50.844;-1.062;2022-11-13T04:41:56;122.97;;;35.00;;
65684;SDS011;52405;50.844;-1.062;2022-11-13T04:44:40;108.80;;;33.97;;
65684;SDS011;52405;50.844;-1.062;2022-11-13T04:47:06;100.25;;;30.85;;
65684;SDS011;52405;50.844;-1.062;2022-11-13T04:49:31;112.47;;;33.13;;
65684;SDS011;52405;50.844;-1.062;2022-11-13T04:51:56;120.03;;;32.58;;
65684;SDS011;52405;50.844;-1.062;2022-11-13T04:54:22;116.68;;;33.45;;
65684;SDS011;52405;50.844;-1.062;2022-11-13T04:56:47;104.63;;;30.73;;
65684;SDS011;52405;50.844;-1.062;2022-11-13T04:59:13;109.13;;;30.70;;
65684;SDS011;52405;50.844;-1.062;2022-11-13T05:01:39;113.63;;;32.42;;
65684;SDS011;52405;50.844;-1.062;2022-11-13T05:04:04;110.78;;;32.97;;
65684;SDS011;52405;50.844;-1.062;2022-11-13T05:06:30;122.13;;;35.53;;
65684;SDS011;52405;50.844;-1.062;2022-11-13T05:08:55;121.88;;;35.53;;
65684;SDS011;52405;50.844;-1.062;2022-11-13T05:11:21;114.70;;;35.30;;
65684;SDS011;52405;50.844;-1.062;2022-11-13T05:13:46;113.78;;;35.92;;
65684;SDS011;52405;50.844;-1.062;2022-11-13T05:16:12;89.57;;;34.78;;
65684;SDS011;52405;50.844;-1.062;2022-11-13T05:18:39;81.57;;;31.77;;
65684;SDS011;52405;50.844;-1.062;2022-11-13T05:21:05;81.82;;;30.98;;
65684;SDS011;52405;50.844;-1.062;2022-11-13T05:23:32;87.78;;;32.10;;
65684;SDS011;52405;50.844;-1.062;2022-11-13T05:26:04;87.25;;;32.70;;
65684;SDS011;52405;50.844;-1.062;2022-11-13T05:28:31;76.57;;;31.48;;
65684;SDS011;52405;50.844;-1.062;2022-11-13T05:33:29;65.78;;;26.00;;
65684;SDS011;52405;50.844;-1.062;2022-11-13T05:35:54;68.07;;;28.83;;
65684;SDS011;52405;50.844;-1.062;2022-11-13T05:38:25;68.15;;;28.80;;
65684;SDS011;52405;50.844;-1.062;2022-11-13T05:40:52;68.30;;;26.55;;
65684;SDS011;52405;50.844;-1.062;2022-11-13T05:43:17;60.15;;;26.00;;
65684;SDS011;52405;50.844;-1.062;2022-11-13T05:45:43;71.78;;;26.17;;
65684;SDS011;52405;50.844;-1.062;2022-11-13T05:48:08;68.65;;;27.73;;
65684;SDS011;52405;50.844;-1.062;2022-11-13T05:50:34;54.65;;;26.33;;
65684;SDS011;52405;50.844;-1.062;2022-11-13T05:52:59;59.90;;;26.60;;
65684;SDS011;52405;50.844;-1.062;2022-11-13T05:55:25;73.10;;;28.65;;
65684;SDS011;52405;50.844;-1.062;2022-11-13T05:57:50;67.60;;;27.67;;
65684;SDS011;52405;50.844;-1.062;2022-11-13T06:00:16;76.60;;;29.10;;
65684;SDS011;52405;50.844;-1.062;2022-11-13T06:02:42;87.90;;;28.42;;
65684;SDS011;52405;50.844;-1.062;2022-11-13T06:05:08;78.72;;;27.95;;
65684;SDS011;52405;50.844;-1.062;2022-11-13T06:07:33;81.90;;;28.40;;
65684;SDS011;52405;50.844;-1.062;2022-11-13T06:09:59;98.15;;;29.33;;
65684;SDS011;52405;50.844;-1.062;2022-11-13T06:12:24;108.60;;;29.60;;
65684;SDS011;52405;50.844;-1.062;2022-11-13T06:14:50;100.82;;;28.58;;
65684;SDS011;52405;50.844;-1.062;2022-11-13T06:17:15;107.18;;;28.42;;
65684;SDS011;52405;50.844;-1.062;2022-11-13T06:19:41;94.82;;;28.05;;
65684;SDS011;52405;50.844;-1.062;2022-11-13T06:22:06;123.20;;;29.73;;
65684;SDS011;52405;50.844;-1.062;2022-11-13T06:24:32;97.63;;;28.77;;
65684;SDS011;52405;50.844;-1.062;2022-11-13T06:26:57;135.50;;;29.17;;
65684;SDS011;52405;50.844;-1.062;2022-11-13T06:29:22;94.30;;;30.35;;
65684;SDS011;52405;50.844;-1.062;2022-11-13T06:31:48;112.60;;;31.55;;
65684;SDS011;52405;50.844;-1.062;2022-11-13T06:34:13;98.55;;;30.92;;
65684;SDS011;52405;50.844;-1.062;2022-11-13T06:36:39;104.50;;;30.33;;
65684;SDS011;52405;50.844;-1.062;2022-11-13T06:39:05;109.10;;;31.88;;
65684;SDS011;52405;50.844;-1.062;2022-11-13T06:41:32;89.88;;;32.65;;
65684;SDS011;52405;50.844;-1.062;2022-11-13T06:43:58;93.50;;;29.73;;
65684;SDS011;52405;50.844;-1.062;2022-11-13T06:46:25;85.00;;;29.20;;
65684;SDS011;52405;50.844;-1.062;2022-11-13T06:48:52;88.60;;;30.77;;
65684;SDS011;52405;50.844;-1.062;2022-11-13T06:51:19;91.45;;;30.98;;
65684;SDS011;52405;50.844;-1.062;2022-11-13T06:53:47;83.25;;;29.25;;
65684;SDS011;52405;50.844;-1.062;2022-11-13T06:56:13;88.70;;;27.98;;
65684;SDS011;52405;50.844;-1.062;2022-11-13T06:58:39;91.57;;;30.45;;
65684;SDS011;52405;50.844;-1.062;2022-11-13T07:01:09;81.07;;;28.73;;
65684;SDS011;52405;50.844;-1.062;2022-11-13T07:03:42;93.78;;;31.45;;
65684;SDS011;52405;50.844;-1.062;2022-11-13T07:06:15;75.25;;;28.05;;
65684;SDS011;52405;50.844;-1.062;2022-11-13T07:08:45;83.30;;;28.42;;
65684;SDS011;52405;50.844;-1.062;2022-11-13T07:11:12;86.95;;;29.75;;
65684;SDS011;52405;50.844;-1.062;2022-11-13T07:13:40;85.78;;;29.17;;
65684;SDS011;52405;50.844;-1.062;2022-11-13T07:16:06;86.88;;;27.65;;
65684;SDS011;52405;50.844;-1.062;2022-11-13T07:18:33;83.07;;;29.08;;
65684;SDS011;52405;50.844;-1.062;2022-11-13T07:21:06;84.07;;;29.00;;
65684;SDS011;52405;50.844;-1.062;2022-11-13T07:23:33;76.72;;;27.70;;
65684;SDS011;52405;50.844;-1.062;2022-11-13T07:26:01;76.18;;;26.65;;
65684;SDS011;52405;50.844;-1.062;2022-11-13T07:28:28;75.32;;;27.98;;
65684;SDS011;52405;50.844;-1.062;2022-11-13T07:30:55;69.03;;;26.00;;
65684;SDS011;52405;50.844;-1.062;2022-11-13T07:33:22;70.72;;;26.00;;
65684;SDS011;52405;50.844;-1.062;2022-11-13T07:35:47;82.57;;;28.05;;
65684;SDS011;52405;50.844;-1.062;2022-11-13T07:38:13;75.20;;;26.15;;
65684;SDS011;52405;50.844;-1.062;2022-11-13T07:40:38;76.05;;;26.55;;
65684;SDS011;52405;50.844;-1.062;2022-11-13T07:43:03;75.10;;;26.08;;
65684;SDS011;52405;50.844;-1.062;2022-11-13T07:45:30;78.45;;;25.20;;
65684;SDS011;52405;50.844;-1.062;2022-11-13T07:47:59;76.05;;;27.45;;
65684;SDS011;52405;50.844;-1.062;2022-11-13T07:50:26;91.88;;;26.23;;
65684;SDS011;52405;50.844;-1.062;2022-11-13T07:52:54;88.45;;;26.35;;
65684;SDS011;52405;50.844;-1.062;2022-11-13T07:55:20;77.82;;;26.08;;
65684;SDS011;52405;50.844;-1.062;2022-11-13T07:57:46;71.38;;;25.52;;
65684;SDS011;52405;50.844;-1.062;2022-11-13T08:00:11;88.00;;;25.98;;
65684;SDS011;52405;50.844;-1.062;2022-11-13T08:02:37;75.75;;;24.05;;
65684;SDS011;52405;50.844;-1.062;2022-11-13T08:05:03;74.88;;;28.27;;
65684;SDS011;52405;50.844;-1.062;2022-11-13T08:07:28;79.72;;;25.65;;
65684;SDS011;52405;50.844;-1.062;2022-11-13T08:09:54;78.10;;;25.42;;
65684;SDS011;52405;50.844;-1.062;2022-11-13T08:12:19;83.45;;;23.80;;
65684;SDS011;52405;50.844;-1.062;2022-11-13T08:14:44;77.10;;;24.67;;
65684;SDS011;52405;50.844;-1.062;2022-11-13T08:17:10;90.93;;;25.15;;
65684;SDS011;52405;50.844;-1.062;2022-11-13T08:19:35;72.78;;;25.58;;
65684;SDS011;52405;50.844;-1.062;2022-11-13T08:22:01;85.18;;;27.40;;
65684;SDS011;52405;50.844;-1.062;2022-11-13T08:24:26;68.35;;;24.15;;
65684;SDS011;52405;50.844;-1.062;2022-11-13T08:26:52;76.40;;;23.00;;
65684;SDS011;52405;50.844;-1.062;2022-11-13T08:29:17;86.50;;;25.35;;
65684;SDS011;52405;50.844;-1.062;2022-11-13T08:31:43;80.82;;;25.35;;
65684;SDS011;52405;50.844;-1.062;2022-11-13T08:34:08;78.93;;;25.77;;
65684;SDS011;52405;50.844;-1.062;2022-11-13T08:36:34;90.43;;;25.63;;
65684;SDS011;52405;50.844;-1.062;2022-11-13T08:38:59;74.88;;;23.42;;
65684;SDS011;52405;50.844;-1.062;2022-11-13T08:41:25;78.47;;;26.45;;
65684;SDS011;52405;50.844;-1.062;2022-11-13T08:43:50;78.20;;;25.52;;
65684;SDS011;52405;50.844;-1.062;2022-11-13T08:46:16;71.90;;;24.70;;
65684;SDS011;52405;50.844;-1.062;2022-11-13T08:48:41;69.53;;;24.08;;
65684;SDS011;52405;50.844;-1.062;2022-11-13T08:51:07;74.03;;;24.27;;
65684;SDS011;52405;50.844;-1.062;2022-11-13T08:53:32;71.97;;;24.27;;
65684;SDS011;52405;50.844;-1.062;2022-11-13T08:56:01;67.00;;;23.48;;
65684;SDS011;52405;50.844;-1.062;2022-11-13T08:58:27;67.28;;;24.30;;
65684;SDS011;52405;50.844;-1.062;2022-11-13T09:00:52;73.80;;;24.70;;
65684;SDS011;52405;50.844;-1.062;2022-11-13T09:03:18;74.85;;;24.80;;
65684;SDS011;52405;50.844;-1.062;2022-11-13T09:05:43;62.38;;;21.73;;
65684;SDS011;52405;50.844;-1.062;2022-11-13T09:08:09;64.55;;;21.73;;
65684;SDS011;52405;50.844;-1.062;2022-11-13T09:10:34;59.60;;;22.77;;
65684;SDS011;52405;50.844;-1.062;2022-11-13T09:13:01;50.78;;;20.70;;
65684;SDS011;52405;50.844;-1.062;2022-11-13T09:15:29;52.35;;;20.90;;
65684;SDS011;52405;50.844;-1.062;2022-11-13T09:17:56;56.35;;;24.40;;
65684;SDS011;52405;50.844;-1.062;2022-11-13T09:20:27;53.78;;;21.13;;
65684;SDS011;52405;50.844;-1.062;2022-11-13T09:22:57;57.20;;;21.15;;
65684;SDS011;52405;50.844;-1.062;2022-11-13T09:25:24;51.00;;;20.90;;
65684;SDS011;52405;50.844;-1.062;2022-11-13T09:27:51;43.70;;;19.60;;
65684;SDS011;52405;50.844;-1.062;2022-11-13T09:30:18;48.50;;;19.48;;
65684;SDS011;52405;50.844;-1.062;2022-11-13T09:32:44;44.95;;;19.45;;
65684;SDS011;52405;50.844;-1.062;2022-11-13T09:35:09;40.63;;;18.60;;
65684;SDS011;52405;50.844;-1.062;2022-11-13T09:37:34;41.63;;;18.83;;
65684;SDS011;52405;50.844;-1.062;2022-11-13T09:40:00;36.08;;;18.52;;
65684;SDS011;52405;50.844;-1.062;2022-11-13T09:42:26;33.95;;;17.13;;
65684;SDS011;52405;50.844;-1.062;2022-11-13T09:44:58;32.80;;;17.30;;
65684;SDS011;52405;50.844;-1.062;2022-11-13T09:47:36;35.15;;;18.65;;
65684;SDS011;52405;50.844;-1.062;2022-11-13T09:52:41;32.05;;;16.42;;
65684;SDS011;52405;50.844;-1.062;2022-11-13T09:55:13;33.17;;;16.80;;
65684;SDS011;52405;50.844;-1.062;2022-11-13T10:00:11;28.42;;;15.50;;
65684;SDS011;52405;50.844;-1.062;2022-11-13T10:07:57;24.45;;;13.75;;
65684;SDS011;52405;50.844;-1.062;2022-11-13T10:12:57;22.33;;;14.20;;
65684;SDS011;52405;50.844;-1.062;2022-11-13T10:15:24;22.88;;;13.57;;
65684;SDS011;52405;50.844;-1.062;2022-11-13T10:17:56;21.05;;;12.90;;
65684;SDS011;52405;50.844;-1.062;2022-11-13T10:23:19;18.20;;;11.45;;
65684;SDS011;52405;50.844;-1.062;2022-11-13T10:28:20;18.30;;;11.30;;
65684;SDS011;52405;50.844;-1.062;2022-11-13T10:30:47;18.77;;;12.23;;
65684;SDS011;52405;50.844;-1.062;2022-11-13T10:33:16;20.15;;;11.63;;
65684;SDS011;52405;50.844;-1.062;2022-11-13T10:35:48;18.73;;;11.25;;
65684;SDS011;52405;50.844;-1.062;2022-11-13T10:38:24;20.73;;;12.80;;
65684;SDS011;52405;50.844;-1.062;2022-11-13T10:41:03;20.42;;;12.85;;
65684;SDS011;52405;50.844;-1.062;2022-11-13T10:43:32;19.73;;;11.25;;
65684;SDS011;52405;50.844;-1.062;2022-11-13T10:46:02;21.42;;;12.13;;
65684;SDS011;52405;50.844;-1.062;2022-11-13T10:48:34;17.90;;;11.90;;
65684;SDS011;52405;50.844;-1.062;2022-11-13T10:51:02;21.15;;;11.30;;
65684;SDS011;52405;50.844;-1.062;2022-11-13T10:53:37;21.60;;;12.48;;
65684;SDS011;52405;50.844;-1.062;2022-11-13T11:01:36;17.52;;;11.43;;
65684;SDS011;52405;50.844;-1.062;2022-11-13T11:04:03;19.30;;;10.70;;
65684;SDS011;52405;50.844;-1.062;2022-11-13T11:06:31;15.05;;;10.38;;
65684;SDS011;52405;50.844;-1.062;2022-11-13T11:09:13;16.80;;;11.73;;
65684;SDS011;52405;50.844;-1.062;2022-11-13T11:11:45;19.00;;;10.95;;
65684;SDS011;52405;50.844;-1.062;2022-11-13T11:17:24;18.98;;;10.82;;
65684;SDS011;52405;50.844;-1.062;2022-11-13T11:19:54;17.55;;;11.18;;
65684;SDS011;52405;50.844;-1.062;2022-11-13T11:22:27;18.13;;;11.77;;
65684;SDS011;52405;50.844;-1.062;2022-11-13T11:24:59;14.95;;;10.15;;
65684;SDS011;52405;50.844;-1.062;2022-11-13T11:27:34;18.42;;;11.15;;
65684;SDS011;52405;50.844;-1.062;2022-11-13T11:30:22;17.15;;;10.32;;
65684;SDS011;52405;50.844;-1.062;2022-11-13T11:35:36;16.58;;;10.15;;
65684;SDS011;52405;50.844;-1.062;2022-11-13T11:40:47;14.82;;;10.10;;
65684;SDS011;52405;50.844;-1.062;2022-11-13T11:45:45;16.60;;;9.90;;
65684;SDS011;52405;50.844;-1.062;2022-11-13T11:48:19;16.33;;;10.93;;
65684;SDS011;52405;50.844;-1.062;2022-11-13T11:53:19;13.88;;;10.02;;
65684;SDS011;52405;50.844;-1.062;2022-11-13T12:04:05;15.50;;;8.60;;
65684;SDS011;52405;50.844;-1.062;2022-11-13T12:14:42;11.75;;;8.20;;
65684;SDS011;52405;50.844;-1.062;2022-11-13T12:20:27;12.45;;;8.18;;
65684;SDS011;52405;50.844;-1.062;2022-11-13T12:25:53;11.48;;;7.85;;
65684;SDS011;52405;50.844;-1.062;2022-11-13T12:28:36;13.02;;;6.85;;
65684;SDS011;52405;50.844;-1.062;2022-11-13T12:31:15;9.85;;;7.05;;
65684;SDS011;52405;50.844;-1.062;2022-11-13T12:36:15;10.63;;;6.70;;
65684;SDS011;52405;50.844;-1.062;2022-11-13T12:39:29;12.40;;;6.95;;
65684;SDS011;52405;50.844;-1.062;2022-11-13T12:45:07;10.88;;;6.40;;
65684;SDS011;52405;50.844;-1.062;2022-11-13T12:47:48;15.50;;;6.70;;
65684;SDS011;52405;50.844;-1.062;2022-11-13T12:50:26;8.15;;;5.55;;
65684;SDS011;52405;50.844;-1.062;2022-11-13T12:52:57;7.60;;;5.32;;
65684;SDS011;52405;50.844;-1.062;2022-11-13T12:55:25;7.13;;;4.45;;
65684;SDS011;52405;50.844;-1.062;2022-11-13T12:57:52;7.70;;;3.47;;
65684;SDS011;52405;50.844;-1.062;2022-11-13T13:00:23;5.60;;;3.65;;
65684;SDS011;52405;50.844;-1.062;2022-11-13T13:03:02;10.35;;;4.25;;
65684;SDS011;52405;50.844;-1.062;2022-11-13T13:05:37;7.32;;;3.95;;
65684;SDS011;52405;50.844;-1.062;2022-11-13T13:08:37;6.53;;;3.63;;
65684;SDS011;52405;50.844;-1.062;2022-11-13T13:16:49;11.70;;;4.20;;
65684;SDS011;52405;50.844;-1.062;2022-11-13T13:19:22;11.85;;;4.72;;
65684;SDS011;52405;50.844;-1.062;2022-11-13T13:21:53;5.70;;;4.80;;
65684;SDS011;52405;50.844;-1.062;2022-11-13T13:24:27;9.40;;;3.72;;
65684;SDS011;52405;50.844;-1.062;2022-11-13T13:26:55;6.35;;;4.22;;
65684;SDS011;52405;50.844;-1.062;2022-11-13T13:29:24;8.73;;;4.55;;
65684;SDS011;52405;50.844;-1.062;2022-11-13T13:31:54;11.07;;;4.85;;
65684;SDS011;52405;50.844;-1.062;2022-11-13T13:43:05;6.97;;;4.22;;
65684;SDS011;52405;50.844;-1.062;2022-11-13T13:48:39;8.55;;;4.35;;
65684;SDS011;52405;50.844;-1.062;2022-11-13T13:51:14;8.30;;;4.63;;
65684;SDS011;52405;50.844;-1.062;2022-11-13T13:53:46;6.95;;;4.20;;
65684;SDS011;52405;50.844;-1.062;2022-11-13T13:56:13;10.70;;;5.47;;
65684;SDS011;52405;50.844;-1.062;2022-11-13T13:58:39;13.88;;;4.57;;
65684;SDS011;52405;50.844;-1.062;2022-11-13T14:01:10;10.52;;;4.90;;
65684;SDS011;52405;50.844;-1.062;2022-11-13T14:03:38;9.38;;;4.60;;
65684;SDS011;52405;50.844;-1.062;2022-11-13T14:06:22;8.30;;;4.95;;
65684;SDS011;52405;50.844;-1.062;2022-11-13T14:08:48;11.00;;;5.55;;
65684;SDS011;52405;50.844;-1.062;2022-11-13T14:11:15;13.07;;;5.90;;
65684;SDS011;52405;50.844;-1.062;2022-11-13T14:13:44;8.05;;;5.05;;
65684;SDS011;52405;50.844;-1.062;2022-11-13T14:16:10;7.00;;;4.60;;
65684;SDS011;52405;50.844;-1.062;2022-11-13T14:18:35;7.82;;;4.35;;
65684;SDS011;52405;50.844;-1.062;2022-11-13T14:21:04;10.10;;;5.80;;
65684;SDS011;52405;50.844;-1.062;2022-11-13T14:23:35;12.38;;;5.63;;
65684;SDS011;52405;50.844;-1.062;2022-11-13T14:26:05;11.05;;;5.50;;
65684;SDS011;52405;50.844;-1.062;2022-11-13T14:28:41;12.85;;;5.18;;
65684;SDS011;52405;50.844;-1.062;2022-11-13T14:31:08;9.77;;;5.07;;
65684;SDS011;52405;50.844;-1.062;2022-11-13T14:33:41;7.47;;;4.82;;
65684;SDS011;52405;50.844;-1.062;2022-11-13T14:36:09;10.25;;;4.55;;
65684;SDS011;52405;50.844;-1.062;2022-11-13T14:38:39;8.00;;;4.47;;
65684;SDS011;52405;50.844;-1.062;2022-11-13T14:41:13;9.32;;;5.13;;
65684;SDS011;52405;50.844;-1.062;2022-11-13T14:44:00;9.68;;;4.65;;
65684;SDS011;52405;50.844;-1.062;2022-11-13T14:46:36;9.88;;;5.10;;
65684;SDS011;52405;50.844;-1.062;2022-11-13T14:49:10;11.23;;;5.15;;
65684;SDS011;52405;50.844;-1.062;2022-11-13T14:51:39;7.18;;;4.53;;
65684;SDS011;52405;50.844;-1.062;2022-11-13T14:54:05;8.80;;;4.82;;
65684;SDS011;52405;50.844;-1.062;2022-11-13T14:56:38;13.07;;;5.57;;
65684;SDS011;52405;50.844;-1.062;2022-11-13T14:59:06;9.63;;;4.93;;
65684;SDS011;52405;50.844;-1.062;2022-11-13T15:01:33;13.45;;;5.95;;
65684;SDS011;52405;50.844;-1.062;2022-11-13T15:03:59;11.32;;;5.50;;
65684;SDS011;52405;50.844;-1.062;2022-11-13T15:06:26;8.20;;;5.32;;
65684;SDS011;52405;50.844;-1.062;2022-11-13T15:08:57;11.88;;;4.53;;
65684;SDS011;52405;50.844;-1.062;2022-11-13T15:11:25;15.65;;;5.88;;
65684;SDS011;52405;50.844;-1.062;2022-11-13T15:13:51;9.77;;;5.07;;
65684;SDS011;52405;50.844;-1.062;2022-11-13T15:16:18;8.98;;;4.65;;
65684;SDS011;52405;50.844;-1.062;2022-11-13T15:18:52;17.90;;;4.65;;
65684;SDS011;52405;50.844;-1.062;2022-11-13T15:21:18;11.70;;;5.28;;
65684;SDS011;52405;50.844;-1.062;2022-11-13T15:23:44;8.20;;;4.68;;
65684;SDS011;52405;50.844;-1.062;2022-11-13T15:26:09;14.82;;;5.05;;
65684;SDS011;52405;50.844;-1.062;2022-11-13T15:28:36;6.35;;;4.40;;
65684;SDS011;52405;50.844;-1.062;2022-11-13T15:31:01;7.15;;;4.20;;
65684;SDS011;52405;50.844;-1.062;2022-11-13T15:33:27;10.32;;;4.18;;
65684;SDS011;52405;50.844;-1.062;2022-11-13T15:35:53;10.18;;;4.30;;
65684;SDS011;52405;50.844;-1.062;2022-11-13T15:38:18;11.38;;;3.97;;
65684;SDS011;52405;50.844;-1.062;2022-11-13T15:40:44;8.25;;;5.07;;
65684;SDS011;52405;50.844;-1.062;2022-11-13T15:43:12;9.52;;;4.38;;
65684;SDS011;52405;50.844;-1.062;2022-11-13T15:45:43;11.27;;;5.20;;
65684;SDS011;52405;50.844;-1.062;2022-11-13T15:48:09;6.93;;;5.20;;